Etusivu
METAR-TAF:

METAR-TAF

Lentoasemat :

Lincoln Airport

Lincoln, Nebraska, Yhdysvallat

Leveyspiiri: 40-49-52N, Pituuspiiri: 096-45-52W, korkeus merenpinnasta: 370 m

Tämänhetkinen sää

Tämä raportti tehtiin 48 minuuttia sitten, kello 06.54 UTC
Tuuli 4 kn etelästä/kaakosta
Lämpötila 23°C
Kosteus 89%
Ilmanpaine 1014 hPa
Näkyvyys: 14.5 km
selkeää

METAR: KLNK 140654Z AUTO 16004KT 9SM CLR 23/21 A2993 RMK AO2 SLP120 T02330206

Aika: 02:42 (07:42 UTC)

Sääennuste

Tämä raportti tehtiin 2 tuntia ja 22 minuuttia sitten, kello 05.20 UTC
Ennuste voimassa 14. päivästä klo 06 UTC - 15. päivään klo 06 UTC
Tuuli 9 kn etelästä/lounaasta puuskistuen 16 kn:hen
Näkyvyys: 10 km
selkeää
From 14. päivästä klo 1200 UTC
Tuuli 11 kn lännestä/lounaasta
Näkyvyys: 10 km
selkeää
From 14. päivästä klo 1700 UTC
Tuuli 8 kn etelästä
Näkyvyys: 10 km
selkeää

TAF: KLNK 140520Z 1406/1506 21009G16KT P6SM SKC WS020/22045KT FM141200 24011KT P6SM SKC FM141700 18008KT P6SM SKC

Säähavainnot ja -ennusteet yli 4000 lentoasemalta (METAR- ja TAF-raportit).

Käytössä olevat sääasemat on merkitty karttaan keltaisilla ja punaisilla pisteillä.

Aseta hiiri pisteen päälle nähdäksesi sääaseman nimen.

Klikkaa sitten nähdäksesi säähavainnot ja -ennusteet.

Kartan vaihtaminen: klikkaa mustalla rastilla varustettuja vihreitä pisteitä, niin voit zoomata sisään; viivalla varustettua vihreää pistettä, niin voit zoomata ulos tai vihreitä nuolia, niin pääset viereisille kartoille.


METAR-TAF: